Stones Mill, Virginia
Current Conditions -  °F | °C
As of 7:35 PM on Friday 24 Oct 2014 (Local Time) from KMKJ Reporting Station
Clear Clear  
Wind Chill: 54°   Ceiling: Unl
Heat Index: 54°   Visibility: 10mi
Dew Point: 37°   Wind: 7mph
Humidity: 52%   Direction: 260°W
Pressure: 30.08"   Gusts: NA
Location:  36.9511°N, 81.112°W
Report Text: KMKJ 242335Z AUTO 26006KT 10SM CLR 12/03 A3008 RMK AO2 T01220025
Loading
Personal Weather Stations






























Interactive Weather Map
Tropical Storm Tracking
New forecast layout! Learn more

10-Day Weather Forecast

Advertisements
Track Severe Weather on mobile